createdAt,value
2023-02-11T00:00:40.808Z,1.02
2023-02-11T00:03:07.669Z,0.86
2023-02-11T00:05:34.671Z,0.98
2023-02-11T00:08:01.592Z,0.90
2023-02-11T00:10:28.203Z,0.98
2023-02-11T00:12:54.736Z,0.98
2023-02-11T00:15:21.509Z,0.86
2023-02-11T00:17:48.094Z,1.17
2023-02-11T00:20:15.112Z,0.89
2023-02-11T00:22:41.697Z,0.97
2023-02-11T00:25:08.471Z,0.65
2023-02-11T00:27:37.148Z,0.90
2023-02-11T00:30:05.362Z,0.63
2023-02-11T00:32:32.002Z,0.54
2023-02-11T00:34:58.570Z,0.33
2023-02-11T00:37:25.168Z,0.41
2023-02-11T00:39:51.822Z,0.46
2023-02-11T00:42:18.441Z,0.81
2023-02-11T00:44:45.077Z,0.76
2023-02-11T00:47:11.640Z,0.91
2023-02-11T00:49:40.299Z,0.54
2023-02-11T00:52:07.270Z,0.77
2023-02-11T00:54:34.673Z,0.91
2023-02-11T00:57:01.251Z,0.83
2023-02-11T00:59:27.997Z,0.89
2023-02-11T01:01:54.723Z,0.65
2023-02-11T01:04:21.463Z,0.74
2023-02-11T01:06:51.403Z,0.74
2023-02-11T01:09:18.141Z,0.68
2023-02-11T01:11:44.720Z,0.48
2023-02-11T01:14:11.553Z,-0.33
2023-02-11T01:16:38.325Z,-0.03
2023-02-11T01:19:05.240Z,-0.09
2023-02-11T01:21:31.917Z,-0.14
2023-02-11T01:23:58.491Z,-0.09
2023-02-11T01:26:25.054Z,-0.34
2023-02-11T01:28:51.607Z,-0.36
2023-02-11T01:31:18.270Z,-0.26
2023-02-11T01:33:44.883Z,0.18
2023-02-11T01:36:12.003Z,-0.11
2023-02-11T01:38:40.828Z,0.37
2023-02-11T01:41:09.811Z,0.48
2023-02-11T01:43:42.260Z,0.57
2023-02-11T01:46:14.622Z,0.56
2023-02-11T01:48:47.642Z,0.75
2023-02-11T01:51:21.771Z,0.84
2023-02-11T01:54:07.376Z,0.93
2023-02-11T01:57:06.534Z,0.89
2023-02-11T01:59:39.906Z,0.92
2023-02-11T02:02:11.595Z,0.83
2023-02-11T02:04:57.873Z,1.04
2023-02-11T02:07:40.874Z,0.95
2023-02-11T02:10:12.105Z,0.99
2023-02-11T02:12:38.793Z,1.13
2023-02-11T02:15:24.515Z,0.84
2023-02-11T02:17:57.487Z,1.14
2023-02-11T02:21:04.840Z,1.18
2023-02-11T02:24:28.858Z,1.34
2023-02-11T02:27:25.729Z,1.53
2023-02-11T02:30:00.928Z,1.51
2023-02-11T02:32:45.763Z,1.56
2023-02-11T02:35:25.750Z,1.40
2023-02-11T02:38:08.594Z,1.78
2023-02-11T02:40:41.850Z,1.58
2023-02-11T02:43:10.030Z,1.25
2023-02-11T02:45:36.629Z,0.63
2023-02-11T02:48:03.274Z,0.65
2023-02-11T02:50:33.989Z,0.55
2023-02-11T02:53:24.196Z,1.04
2023-02-11T02:56:18.733Z,0.28
2023-02-11T02:59:04.428Z,0.94
2023-02-11T03:01:59.162Z,0.84
2023-02-11T03:05:04.761Z,1.34
2023-02-11T03:07:35.338Z,0.64
2023-02-11T03:10:12.474Z,0.50
2023-02-11T03:12:40.222Z,0.90
2023-02-11T03:15:07.354Z,0.89
2023-02-11T03:17:35.207Z,0.41
2023-02-11T03:20:04.276Z,0.21
2023-02-11T03:22:35.411Z,-0.09
2023-02-11T03:25:02.786Z,0.26
2023-02-11T03:27:47.127Z,0.78
2023-02-11T03:30:18.170Z,1.05
2023-02-11T03:32:53.970Z,0.47
2023-02-11T03:35:29.259Z,0.69
2023-02-11T03:37:58.489Z,0.96
2023-02-11T03:40:27.432Z,0.80
2023-02-11T03:43:03.019Z,0.77
2023-02-11T03:45:30.313Z,0.68
2023-02-11T03:48:19.990Z,0.33
2023-02-11T03:50:47.510Z,0.53
2023-02-11T03:53:15.126Z,0.88
2023-02-11T03:55:43.144Z,0.77
2023-02-11T03:58:09.813Z,1.37
2023-02-11T04:00:39.557Z,0.98
2023-02-11T04:03:07.026Z,1.21
2023-02-11T04:05:33.840Z,1.50
2023-02-11T04:08:00.560Z,1.71
2023-02-11T04:10:27.147Z,1.91
2023-02-11T04:12:53.802Z,2.05
2023-02-11T04:15:22.960Z,2.07
2023-02-11T04:17:49.599Z,1.80
2023-02-11T04:20:16.167Z,1.55
2023-02-11T04:22:42.697Z,1.74
2023-02-11T04:25:09.564Z,1.27
2023-02-11T04:27:36.541Z,1.33
2023-02-11T04:30:04.018Z,0.77
2023-02-11T04:32:30.558Z,1.10
2023-02-11T04:34:57.209Z,1.45
2023-02-11T04:37:23.767Z,0.87
2023-02-11T04:39:50.294Z,0.85
2023-02-11T04:42:16.870Z,0.71
2023-02-11T04:44:43.460Z,0.41
2023-02-11T04:47:10.289Z,1.24
2023-02-11T04:49:36.905Z,1.35
2023-02-11T04:52:03.452Z,0.42
2023-02-11T04:54:30.111Z,0.82
2023-02-11T04:56:56.669Z,0.74
2023-02-11T04:59:23.806Z,1.07
2023-02-11T05:01:50.508Z,1.12
2023-02-11T05:04:17.370Z,0.96
2023-02-11T05:06:43.995Z,1.15
2023-02-11T05:09:12.526Z,0.68
2023-02-11T05:11:39.502Z,0.38
2023-02-11T05:14:06.730Z,0.29
2023-02-11T05:16:33.404Z,0.38
2023-02-11T05:18:59.975Z,0.13
2023-02-11T05:21:26.578Z,1.05
2023-02-11T05:23:53.093Z,0.34
2023-02-11T05:26:20.237Z,0.72
2023-02-11T05:28:46.821Z,0.94
2023-02-11T05:31:14.873Z,1.09
2023-02-11T05:33:41.668Z,1.05
2023-02-11T05:36:10.363Z,0.64
2023-02-11T05:38:37.598Z,1.22
2023-02-11T05:41:05.256Z,0.99
2023-02-11T05:43:32.221Z,2.06
2023-02-11T05:45:58.807Z,1.76
2023-02-11T05:48:25.436Z,1.39
2023-02-11T05:50:52.162Z,1.09
2023-02-11T05:53:18.724Z,1.13
2023-02-11T05:55:45.335Z,1.30
2023-02-11T05:58:11.932Z,1.38
2023-02-11T06:00:38.598Z,1.52
2023-02-11T06:03:05.303Z,1.00
2023-02-11T06:05:32.241Z,1.92
2023-02-11T06:07:58.956Z,1.87
2023-02-11T06:10:25.783Z,2.26
2023-02-11T06:12:52.396Z,2.49
2023-02-11T06:15:19.005Z,2.11
2023-02-11T06:17:45.524Z,1.75
2023-02-11T06:20:12.127Z,2.18
2023-02-11T06:22:38.683Z,2.13
2023-02-11T06:25:05.553Z,2.03
2023-02-11T06:27:32.214Z,2.27
2023-02-11T06:29:58.866Z,2.10
2023-02-11T06:32:43.427Z,1.64
2023-02-11T06:35:12.521Z,1.55
2023-02-11T06:37:39.812Z,1.54
2023-02-11T06:40:06.941Z,1.29
2023-02-11T06:42:34.568Z,1.59
2023-02-11T06:45:01.256Z,1.24
2023-02-11T06:47:27.801Z,1.26
2023-02-11T06:49:54.569Z,1.27
2023-02-11T06:52:21.116Z,1.47
2023-02-11T06:54:47.706Z,1.52
2023-02-11T06:57:14.304Z,1.14
2023-02-11T06:59:41.169Z,1.36
2023-02-11T07:02:10.376Z,1.54
2023-02-11T07:04:37.016Z,1.79
2023-02-11T07:07:03.714Z,1.50
2023-02-11T07:09:30.411Z,1.31
2023-02-11T07:11:56.957Z,1.58
2023-02-11T07:14:23.872Z,1.63
2023-02-11T07:16:50.384Z,1.55
2023-02-11T07:19:17.188Z,1.62
2023-02-11T07:21:43.701Z,1.30
2023-02-11T07:24:11.260Z,1.47
2023-02-11T07:26:38.183Z,1.48
2023-02-11T07:29:04.925Z,1.95
2023-02-11T07:31:32.086Z,2.22
2023-02-11T07:34:00.461Z,2.64
2023-02-11T07:36:28.416Z,1.92
2023-02-11T07:38:55.077Z,1.91
2023-02-11T07:41:23.558Z,1.39
2023-02-11T07:43:50.246Z,1.47
2023-02-11T07:46:23.062Z,1.40
2023-02-11T07:48:49.765Z,1.47
2023-02-11T07:51:18.828Z,1.97
2023-02-11T07:53:46.000Z,2.02
2023-02-11T07:56:13.920Z,2.11
2023-02-11T07:58:42.176Z,2.38
2023-02-11T08:01:18.618Z,2.66
2023-02-11T08:03:52.711Z,2.97
2023-02-11T08:06:21.423Z,2.54
2023-02-11T08:08:48.958Z,2.34
2023-02-11T08:11:21.323Z,2.23
2023-02-11T08:13:48.252Z,2.75
2023-02-11T08:16:35.288Z,2.86
2023-02-11T08:19:04.577Z,2.70
2023-02-11T08:21:31.097Z,3.28
2023-02-11T08:23:57.711Z,3.70
2023-02-11T08:26:27.734Z,3.49
2023-02-11T08:28:56.027Z,3.57
2023-02-11T08:31:28.624Z,3.97
2023-02-11T08:33:58.173Z,3.28
2023-02-11T08:36:28.509Z,3.28
2023-02-11T08:39:08.630Z,3.27
2023-02-11T08:41:42.979Z,2.83
2023-02-11T08:44:09.686Z,3.15
2023-02-11T08:46:36.270Z,3.35
2023-02-11T08:49:02.963Z,2.99
2023-02-11T08:51:33.045Z,2.72
2023-02-11T08:54:00.105Z,3.25
2023-02-11T08:56:26.826Z,2.95
2023-02-11T08:58:53.583Z,3.69
2023-02-11T09:01:23.257Z,4.01
2023-02-11T09:03:50.165Z,3.82
2023-02-11T09:06:18.634Z,4.07
2023-02-11T09:08:49.345Z,4.46
2023-02-11T09:11:16.952Z,4.94
2023-02-11T09:13:44.029Z,4.84
2023-02-11T09:16:19.306Z,3.88
2023-02-11T09:18:46.338Z,3.62
2023-02-11T09:21:14.733Z,4.00
2023-02-11T09:23:44.913Z,3.48
2023-02-11T09:26:20.439Z,3.77
2023-02-11T09:28:47.506Z,3.88
2023-02-11T09:31:16.935Z,3.71
2023-02-11T09:33:48.425Z,3.61
2023-02-11T09:36:20.504Z,4.19
2023-02-11T09:38:48.951Z,4.03
2023-02-11T09:41:24.681Z,4.60
2023-02-11T09:43:56.894Z,5.60
2023-02-11T09:46:25.267Z,5.15
2023-02-11T09:48:53.829Z,5.15
2023-02-11T09:51:41.036Z,4.93
2023-02-11T09:54:26.018Z,6.03
2023-02-11T09:56:52.586Z,6.73
2023-02-11T09:59:20.202Z,6.44
2023-02-11T10:01:50.983Z,5.89
2023-02-11T10:04:55.548Z,6.71
2023-02-11T10:07:48.599Z,6.93
2023-02-11T10:10:31.882Z,6.44
2023-02-11T10:12:58.319Z,6.92
2023-02-11T10:15:33.434Z,6.81
2023-02-11T10:18:02.786Z,7.18
2023-02-11T10:20:48.869Z,6.95
2023-02-11T10:23:29.729Z,7.46
2023-02-11T10:25:57.649Z,7.28
2023-02-11T10:28:30.999Z,7.83
2023-02-11T10:31:00.774Z,7.24
2023-02-11T10:33:59.518Z,6.92
2023-02-11T10:36:31.546Z,7.72
2023-02-11T10:39:00.216Z,7.45
2023-02-11T10:41:32.566Z,7.32
2023-02-11T10:44:00.784Z,7.45
2023-02-11T10:46:32.216Z,8.83
2023-02-11T10:48:58.983Z,7.61
2023-02-11T10:51:37.987Z,7.29
2023-02-11T10:54:04.470Z,7.36
2023-02-11T10:56:38.489Z,7.13
2023-02-11T10:59:07.733Z,7.24
2023-02-11T11:01:40.192Z,7.69
2023-02-11T11:04:06.891Z,7.49
2023-02-11T11:06:34.634Z,7.68
2023-02-11T11:09:02.051Z,7.39
2023-02-11T11:11:28.753Z,7.73
2023-02-11T11:13:59.081Z,7.98
2023-02-11T11:16:32.203Z,9.83
2023-02-11T11:19:07.957Z,8.74
2023-02-11T11:21:44.980Z,8.00
2023-02-11T11:24:29.436Z,8.27
2023-02-11T11:27:01.880Z,8.57
2023-02-11T11:29:40.166Z,8.34
2023-02-11T11:32:13.359Z,8.93
2023-02-11T11:34:45.100Z,9.06
2023-02-11T11:37:29.316Z,9.02
2023-02-11T11:40:01.180Z,9.07
2023-02-11T11:42:33.805Z,8.97
2023-02-11T11:45:23.152Z,8.86
2023-02-11T11:47:56.438Z,8.63
2023-02-11T11:50:42.961Z,8.51
2023-02-11T11:53:15.683Z,8.94
2023-02-11T11:55:49.137Z,9.17
2023-02-11T11:58:18.424Z,8.88
2023-02-11T12:01:00.144Z,8.52
2023-02-11T12:03:45.257Z,9.27
2023-02-11T12:06:24.916Z,7.93
2023-02-11T12:09:12.286Z,8.22
2023-02-11T12:12:20.962Z,9.10
2023-02-11T12:15:11.969Z,10.02
2023-02-11T12:18:15.443Z,10.24
2023-02-11T12:21:07.235Z,9.74
2023-02-11T12:23:55.641Z,9.16
2023-02-11T12:26:37.597Z,9.90
2023-02-11T12:29:27.119Z,9.72
2023-02-11T12:32:12.568Z,9.66
2023-02-11T12:34:49.340Z,9.78
2023-02-11T12:37:23.865Z,9.76
2023-02-11T12:39:56.345Z,9.51
2023-02-11T12:42:51.602Z,9.32
2023-02-11T12:45:38.313Z,9.28
2023-02-11T12:48:27.022Z,9.07
2023-02-11T12:50:56.823Z,9.26
2023-02-11T12:53:44.649Z,8.52
2023-02-11T12:56:25.082Z,8.76
2023-02-11T12:58:53.124Z,9.00
2023-02-11T13:01:26.719Z,8.84
2023-02-11T13:03:57.406Z,8.71
2023-02-11T13:06:35.810Z,8.98
2023-02-11T13:09:04.844Z,9.08
2023-02-11T13:11:44.612Z,9.17
2023-02-11T13:14:21.893Z,8.66
2023-02-11T13:16:50.093Z,8.36
2023-02-11T13:19:35.957Z,8.38
2023-02-11T13:22:04.838Z,8.32
2023-02-11T13:24:49.304Z,8.41
2023-02-11T13:27:29.838Z,8.13
2023-02-11T13:30:22.065Z,7.93
2023-02-11T13:32:55.531Z,8.73
2023-02-11T13:35:33.926Z,8.41
2023-02-11T13:38:02.430Z,8.66
2023-02-11T13:40:33.612Z,8.56
2023-02-11T13:43:01.743Z,8.96
2023-02-11T13:45:43.541Z,8.93
2023-02-11T13:48:25.239Z,8.84
2023-02-11T13:50:58.280Z,8.48
2023-02-11T13:53:25.048Z,8.78
2023-02-11T13:55:53.908Z,8.58
2023-02-11T13:58:29.548Z,8.59
2023-02-11T14:00:56.168Z,8.93
2023-02-11T14:03:43.569Z,8.54
2023-02-11T14:06:28.969Z,8.08
2023-02-11T14:09:08.864Z,8.34
2023-02-11T14:11:41.745Z,8.38
2023-02-11T14:14:08.214Z,7.95
2023-02-11T14:16:38.382Z,7.99
2023-02-11T14:19:06.394Z,8.06
2023-02-11T14:21:38.757Z,8.10
2023-02-11T14:24:05.451Z,8.07
2023-02-11T14:26:47.579Z,8.40
2023-02-11T14:29:28.241Z,8.31
2023-02-11T14:32:06.032Z,8.67
2023-02-11T14:34:47.949Z,8.74
2023-02-11T14:37:33.257Z,8.54
2023-02-11T14:40:29.737Z,8.40
2023-02-11T14:42:57.861Z,8.73
2023-02-11T14:45:27.469Z,8.34
2023-02-11T14:48:08.403Z,8.85
2023-02-11T14:51:11.394Z,8.89
2023-02-11T14:53:42.654Z,8.84
2023-02-11T14:56:26.300Z,8.67
2023-02-11T14:58:54.925Z,8.63
2023-02-11T15:01:26.961Z,8.58
2023-02-11T15:03:56.445Z,8.44
2023-02-11T15:06:31.955Z,8.65
2023-02-11T15:09:01.420Z,8.10
2023-02-11T15:11:31.628Z,8.27
2023-02-11T15:14:02.015Z,8.53
2023-02-11T15:16:29.572Z,8.14
2023-02-11T15:18:59.258Z,8.41
2023-02-11T15:21:28.683Z,8.52
2023-02-11T15:24:19.909Z,8.20
2023-02-11T15:26:56.358Z,8.39
2023-02-11T15:29:27.880Z,7.84
2023-02-11T15:32:13.658Z,7.98
2023-02-11T15:34:40.732Z,7.90
2023-02-11T15:37:07.446Z,7.80
2023-02-11T15:39:40.449Z,7.80
2023-02-11T15:42:22.136Z,7.74
2023-02-11T15:44:56.275Z,7.81
2023-02-11T15:47:29.657Z,8.30
2023-02-11T15:49:56.294Z,7.98
2023-02-11T15:52:25.540Z,7.93
2023-02-11T15:54:52.758Z,7.76
2023-02-11T15:57:20.172Z,7.70
2023-02-11T15:59:49.114Z,7.56
2023-02-11T16:02:26.998Z,7.81
2023-02-11T16:04:55.651Z,7.45
2023-02-11T16:07:47.492Z,7.41
2023-02-11T16:10:30.415Z,7.25
2023-02-11T16:13:18.219Z,7.48
2023-02-11T16:15:57.807Z,7.84
2023-02-11T16:18:36.719Z,7.56
2023-02-11T16:21:05.637Z,7.32
2023-02-11T16:23:35.388Z,7.48
2023-02-11T16:26:12.219Z,7.98
2023-02-11T16:28:39.580Z,7.93
2023-02-11T16:31:06.591Z,7.55
2023-02-11T16:33:33.520Z,7.46
2023-02-11T16:36:02.185Z,7.69
2023-02-11T16:38:29.471Z,7.48
2023-02-11T16:40:56.314Z,7.29
2023-02-11T16:43:22.837Z,7.29
2023-02-11T16:45:49.769Z,7.49
2023-02-11T16:48:19.205Z,7.58
2023-02-11T16:50:48.940Z,7.76
2023-02-11T16:53:22.486Z,7.29
2023-02-11T16:55:50.002Z,7.42
2023-02-11T16:58:16.736Z,7.25
2023-02-11T17:00:44.844Z,7.34
2023-02-11T17:03:17.427Z,7.44
2023-02-11T17:05:55.073Z,7.11
2023-02-11T17:08:24.730Z,7.35
2023-02-11T17:10:51.576Z,7.55
2023-02-11T17:13:18.323Z,7.54
2023-02-11T17:15:44.962Z,7.58
2023-02-11T17:18:14.736Z,7.43
2023-02-11T17:20:41.578Z,7.07
2023-02-11T17:23:08.267Z,7.29
2023-02-11T17:25:37.218Z,7.54
2023-02-11T17:28:08.050Z,7.80
2023-02-11T17:30:35.389Z,7.80
2023-02-11T17:33:01.930Z,7.94
2023-02-11T17:35:28.471Z,8.10
2023-02-11T17:37:55.092Z,7.87
2023-02-11T17:40:21.773Z,8.01
2023-02-11T17:42:48.883Z,7.97
2023-02-11T17:45:15.414Z,8.01
2023-02-11T17:47:42.027Z,7.98
2023-02-11T17:50:08.972Z,7.86
2023-02-11T17:52:36.670Z,7.88
2023-02-11T17:55:03.897Z,7.99
2023-02-11T17:57:30.477Z,7.95
2023-02-11T17:59:57.273Z,7.76
2023-02-11T18:02:23.838Z,7.92
2023-02-11T18:04:52.185Z,7.76
2023-02-11T18:07:19.940Z,7.67
2023-02-11T18:09:46.551Z,7.84
2023-02-11T18:12:13.162Z,7.67
2023-02-11T18:14:40.693Z,7.70
2023-02-11T18:17:07.592Z,7.75
2023-02-11T18:19:36.478Z,7.87
2023-02-11T18:22:04.339Z,7.92
2023-02-11T18:24:31.092Z,7.90
2023-02-11T18:26:58.139Z,7.91
2023-02-11T18:29:25.008Z,7.60
2023-02-11T18:31:55.177Z,7.66
2023-02-11T18:34:21.805Z,7.86
2023-02-11T18:36:49.000Z,7.80
2023-02-11T18:39:16.520Z,7.86
2023-02-11T18:41:43.581Z,7.53
2023-02-11T18:44:12.002Z,7.42
2023-02-11T18:46:38.665Z,7.49
2023-02-11T18:49:05.223Z,7.52
2023-02-11T18:51:32.373Z,7.05
2023-02-11T18:53:59.866Z,6.97
2023-02-11T18:56:28.028Z,7.63
2023-02-11T18:58:56.185Z,7.25
2023-02-11T19:01:27.458Z,6.79
2023-02-11T19:03:55.548Z,6.53
2023-02-11T19:06:26.961Z,6.77
2023-02-11T19:08:56.344Z,6.98
2023-02-11T19:11:42.927Z,7.36
2023-02-11T19:14:10.413Z,7.43
2023-02-11T19:16:38.010Z,7.60
2023-02-11T19:19:05.177Z,7.54
2023-02-11T19:21:32.698Z,7.73
2023-02-11T19:24:00.163Z,7.57
2023-02-11T19:26:27.380Z,7.75
2023-02-11T19:28:54.129Z,7.72
2023-02-11T19:31:21.103Z,7.69
2023-02-11T19:33:47.776Z,7.75
2023-02-11T19:36:17.169Z,7.60
2023-02-11T19:38:44.638Z,7.66
2023-02-11T19:41:11.852Z,7.56
2023-02-11T19:43:41.912Z,7.36
2023-02-11T19:46:08.936Z,7.29
2023-02-11T19:48:35.545Z,7.34
2023-02-11T19:51:12.060Z,6.63
2023-02-11T19:53:39.592Z,6.26
2023-02-11T19:56:07.714Z,6.67
2023-02-11T19:58:38.082Z,6.81
2023-02-11T20:01:13.168Z,6.78
2023-02-11T20:03:42.514Z,6.77
2023-02-11T20:06:13.556Z,6.98
2023-02-11T20:08:40.836Z,7.03
2023-02-11T20:11:15.785Z,6.92
2023-02-11T20:13:42.705Z,7.03
2023-02-11T20:16:14.221Z,6.91
2023-02-11T20:18:41.034Z,6.86
2023-02-11T20:21:17.053Z,6.74
2023-02-11T20:23:46.437Z,6.95
2023-02-11T20:26:18.384Z,6.96
2023-02-11T20:28:47.291Z,6.95
2023-02-11T20:31:15.137Z,7.06
2023-02-11T20:33:42.196Z,7.09
2023-02-11T20:36:11.383Z,7.09
2023-02-11T20:38:38.228Z,7.05
2023-02-11T20:41:18.517Z,7.01
2023-02-11T20:43:47.111Z,7.04
2023-02-11T20:46:15.719Z,6.92
2023-02-11T20:48:42.716Z,7.01
2023-02-11T20:51:14.670Z,7.06
2023-02-11T20:53:48.782Z,6.91
2023-02-11T20:56:16.233Z,7.03
2023-02-11T20:58:42.836Z,6.85
2023-02-11T21:01:13.890Z,7.02
2023-02-11T21:03:43.763Z,6.95
2023-02-11T21:06:13.469Z,6.81
2023-02-11T21:08:40.018Z,6.86
2023-02-11T21:15:30.482Z,6.93
2023-02-11T21:17:57.059Z,6.81
2023-02-11T21:20:23.576Z,6.81
2023-02-11T21:22:50.202Z,6.88
2023-02-11T21:25:16.729Z,6.86
2023-02-11T21:27:43.328Z,6.92
2023-02-11T21:30:11.344Z,6.83
2023-02-11T21:32:37.915Z,6.86
2023-02-11T21:35:04.583Z,6.93
2023-02-11T21:37:31.190Z,6.81
2023-02-11T21:39:57.875Z,6.92
2023-02-11T21:42:24.560Z,7.01
2023-02-11T21:44:51.264Z,6.99
2023-02-11T21:47:17.831Z,6.84
2023-02-11T21:49:44.576Z,7.01
2023-02-11T21:52:11.161Z,6.97
2023-02-11T21:54:37.715Z,6.90
2023-02-11T21:57:04.295Z,7.01
2023-02-11T21:59:32.420Z,6.89
2023-02-11T22:01:58.973Z,6.73
2023-02-11T22:04:26.365Z,6.92
2023-02-11T22:06:53.097Z,6.87
2023-02-11T22:09:19.628Z,6.97
2023-02-11T22:11:46.338Z,6.96
2023-02-11T22:14:12.932Z,7.01
2023-02-11T22:16:39.902Z,6.91
2023-02-11T22:19:07.407Z,6.92
2023-02-11T22:21:34.024Z,7.01
2023-02-11T22:24:00.631Z,6.94
2023-02-11T22:26:27.843Z,7.01
2023-02-11T22:28:55.044Z,7.07
2023-02-11T22:31:28.801Z,7.06
2023-02-11T22:33:56.078Z,6.98
2023-02-11T22:36:31.072Z,6.98
2023-02-11T22:39:01.404Z,6.96
2023-02-11T22:41:27.994Z,6.88
2023-02-11T22:43:54.508Z,6.96
2023-02-11T22:46:21.294Z,6.44
2023-02-11T22:48:48.555Z,6.03
2023-02-11T22:51:17.977Z,6.34
2023-02-11T22:53:44.603Z,6.67
2023-02-11T22:56:15.361Z,6.84
2023-02-11T22:58:42.668Z,6.37
2023-02-11T23:01:09.246Z,6.36
2023-02-11T23:03:36.168Z,6.54
2023-02-11T23:06:03.080Z,6.74
2023-02-11T23:08:30.881Z,6.52
2023-02-11T23:11:05.649Z,6.20
2023-02-11T23:13:34.282Z,5.93
2023-02-11T23:16:03.456Z,5.85
2023-02-11T23:18:30.064Z,5.91
2023-02-11T23:20:56.576Z,5.93
2023-02-11T23:23:23.093Z,5.81
2023-02-11T23:25:49.866Z,5.73
2023-02-11T23:28:16.444Z,6.16
2023-02-11T23:30:43.069Z,6.57
2023-02-11T23:33:09.542Z,6.66
2023-02-11T23:35:36.367Z,6.65
2023-02-11T23:38:02.861Z,6.73
2023-02-11T23:40:29.390Z,6.72
2023-02-11T23:42:55.901Z,6.76
2023-02-11T23:45:22.715Z,6.75
2023-02-11T23:47:49.881Z,6.66
2023-02-11T23:50:16.613Z,6.28
2023-02-11T23:52:51.758Z,6.17
2023-02-11T23:55:18.229Z,6.44
2023-02-11T23:57:44.798Z,6.56
